Time;durP1;ratioP1;P1;durP2;ratioP2;P2;SDS_P1;SDS_P2;PMS_P1;PMS_P2;Temp;Humidity;BMP_temperature;BMP_pressure;BME280_temperature;BME280_humidity;BME280_pressure;Samples;Min_cycle;Max_cycle;Signal;HPM_P1;HPM_P2
2021/05/13 00:01:59;;;;;;;12.85;11.60;;;10.30;99.90;;;;;;5074353;28;20447;-67
2021/05/13 00:04:27;;;;;;;14.57;11.70;;;10.30;99.90;;;;;;5075621;28;20410;-67
2021/05/13 00:06:55;;;;;;;13.52;12.07;;;10.40;99.90;;;;;;5074850;28;20415;-66
2021/05/13 00:09:24;;;;;;;15.02;12.40;;;10.30;99.90;;;;;;5057761;28;20835;-67
2021/05/13 00:11:54;;;;;;;14.48;12.07;;;10.30;99.90;;;;;;5057709;28;20411;-67
2021/05/13 00:14:23;;;;;;;13.40;12.00;;;10.40;99.90;;;;;;5075366;28;20392;-67
2021/05/13 00:16:51;;;;;;;14.25;11.70;;;10.40;99.90;;;;;;5073233;28;20408;-69
2021/05/13 00:19:20;;;;;;;12.55;11.15;;;10.40;99.90;;;;;;5057175;28;20412;-70
2021/05/13 00:21:48;;;;;;;13.55;11.88;;;10.50;99.90;;;;;;5075104;28;20417;-68
2021/05/13 00:24:16;;;;;;;13.73;12.32;;;10.40;99.90;;;;;;5075319;28;20779;-65
2021/05/13 00:26:47;;;;;;;13.63;12.23;;;10.40;99.90;;;;;;5075495;28;20525;-68
2021/05/13 00:29:43;;;;;;;14.00;12.23;;;10.50;99.90;;;;;;5075339;28;20399;-68
2021/05/13 00:32:12;;;;;;;15.98;12.80;;;10.50;99.90;;;;;;5074365;28;20412;-67
2021/05/13 00:34:39;;;;;;;15.75;12.43;;;10.40;99.90;;;;;;5075362;28;20495;-65
2021/05/13 00:37:07;;;;;;;14.30;12.45;;;10.30;99.90;;;;;;5057413;28;20416;-67
2021/05/13 00:39:35;;;;;;;13.85;12.05;;;10.30;99.90;;;;;;5057376;28;20404;-65
2021/05/13 00:42:03;;;;;;;15.48;13.25;;;10.30;99.90;;;;;;5057023;28;20415;-66
2021/05/13 00:44:57;;;;;;;14.40;12.15;;;10.30;99.90;;;;;;5057076;28;20835;-65
2021/05/13 00:47:29;;;;;;;13.80;11.88;;;10.20;99.90;;;;;;5074068;28;20431;-65
2021/05/13 00:49:57;;;;;;;15.40;13.00;;;10.20;99.90;;;;;;5074836;28;20419;-66
2021/05/13 00:52:25;;;;;;;13.45;12.02;;;10.10;99.90;;;;;;5075433;28;20436;-65
2021/05/13 00:54:53;;;;;;;15.30;12.10;;;10.10;99.90;;;;;;5075112;28;20403;-68
2021/05/13 00:57:22;;;;;;;13.93;12.43;;;10.10;99.90;;;;;;5074340;28;20403;-65
2021/05/13 00:59:54;;;;;;;14.93;12.53;;;10.10;99.90;;;;;;5074413;28;20412;-66
2021/05/13 01:02:23;;;;;;;15.40;13.10;;;10.10;99.90;;;;;;5072758;28;20510;-66
2021/05/13 01:04:53;;;;;;;14.90;13.20;;;10.00;99.90;;;;;;5074656;28;20475;-67
2021/05/13 01:07:21;;;;;;;16.85;14.20;;;10.00;99.90;;;;;;5074871;28;20421;-66
2021/05/13 01:09:50;;;;;;;17.30;13.57;;;9.90;99.90;;;;;;5075973;28;20411;-67
2021/05/13 01:12:20;;;;;;;16.17;13.85;;;9.90;99.90;;;;;;5075691;28;20476;-66
2021/05/13 01:14:50;;;;;;;17.00;13.67;;;9.90;99.90;;;;;;5076973;28;20884;-66
2021/05/13 01:17:22;;;;;;;15.87;12.90;;;9.90;99.90;;;;;;5088620;28;20408;-66
2021/05/13 01:19:54;;;;;;;18.60;15.05;;;9.90;99.90;;;;;;5090675;28;20428;-66
2021/05/13 01:22:24;;;;;;;18.93;15.80;;;9.80;99.90;;;;;;5079458;28;20414;-66
2021/05/13 01:24:53;;;;;;;20.95;16.90;;;9.70;99.90;;;;;;5074567;28;20509;-66
2021/05/13 01:27:22;;;;;;;21.33;16.58;;;9.60;99.90;;;;;;5074800;28;20422;-67
2021/05/13 01:29:52;;;;;;;21.05;17.63;;;9.60;99.90;;;;;;5077330;28;20903;-66
2021/05/13 01:32:20;;;;;;;22.77;17.58;;;9.60;99.90;;;;;;5058025;28;20424;-66
2021/05/13 01:34:48;;;;;;;20.63;16.85;;;9.50;99.90;;;;;;5056550;28;20408;-67
2021/05/13 01:37:19;;;;;;;18.20;15.35;;;9.60;99.90;;;;;;5074030;28;20418;-66
2021/05/13 01:39:50;;;;;;;18.25;14.57;;;9.60;99.90;;;;;;5056152;28;20469;-66
2021/05/13 01:42:19;;;;;;;17.52;14.00;;;9.60;99.90;;;;;;5056296;28;20419;-66
2021/05/13 01:44:48;;;;;;;18.10;14.70;;;9.60;99.90;;;;;;5073919;28;20755;-67
2021/05/13 01:47:16;;;;;;;21.17;15.88;;;9.60;99.90;;;;;;5072782;28;20509;-67
2021/05/13 01:49:44;;;;;;;18.65;15.60;;;9.60;99.90;;;;;;5073623;28;20696;-67
2021/05/13 01:52:12;;;;;;;20.05;15.98;;;9.60;99.90;;;;;;5073794;28;20419;-66
2021/05/13 01:54:40;;;;;;;22.13;17.00;;;9.50;99.90;;;;;;5073554;28;20408;-67
2021/05/13 01:57:12;;;;;;;20.93;16.97;;;9.50;99.90;;;;;;5055659;28;20407;-66
2021/05/13 01:59:41;;;;;;;22.17;17.83;;;9.50;99.90;;;;;;5074254;28;20404;-67
2021/05/13 02:02:10;;;;;;;19.13;16.83;;;9.50;99.90;;;;;;5072673;28;20792;-66
2021/05/13 02:04:39;;;;;;;20.45;16.40;;;9.50;99.90;;;;;;5055869;28;20415;-66
2021/05/13 02:07:07;;;;;;;17.83;14.30;;;9.50;99.90;;;;;;5073124;28;20411;-67
2021/05/13 02:09:59;;;;;;;20.23;15.97;;;9.60;99.90;;;;;;5072653;28;20408;-66
2021/05/13 02:12:28;;;;;;;20.50;16.50;;;9.60;99.90;;;;;;5073805;28;20410;-66
2021/05/13 02:14:56;;;;;;;20.90;15.68;;;9.60;99.90;;;;;;5073084;28;20408;-67
2021/05/13 02:17:24;;;;;;;23.02;17.20;;;9.60;99.90;;;;;;5071982;28;20802;-67
2021/05/13 02:19:52;;;;;;;21.35;17.60;;;9.50;99.90;;;;;;5073090;28;20446;-69
2021/05/13 02:22:20;;;;;;;21.05;17.70;;;9.50;99.90;;;;;;5055179;28;20891;-68
2021/05/13 02:24:51;;;;;;;20.77;17.35;;;9.60;99.90;;;;;;5073052;28;20435;-66
2021/05/13 02:27:20;;;;;;;23.33;18.50;;;9.50;99.90;;;;;;5073264;28;20411;-66
2021/05/13 02:29:49;;;;;;;21.83;16.90;;;9.50;99.90;;;;;;5054928;28;20824;-66
2021/05/13 02:32:17;;;;;;;20.50;17.42;;;9.50;99.90;;;;;;5072111;28;20418;-68
2021/05/13 02:34:45;;;;;;;19.63;15.50;;;9.50;99.90;;;;;;5073117;28;20415;-68
2021/05/13 02:37:13;;;;;;;18.55;15.80;;;9.60;99.90;;;;;;5054947;28;20400;-66
2021/05/13 02:39:41;;;;;;;21.08;16.90;;;9.50;99.90;;;;;;5072910;28;21055;-66
2021/05/13 02:42:09;;;;;;;19.20;15.73;;;9.60;99.90;;;;;;5072445;28;20899;-66
2021/05/13 02:44:37;;;;;;;19.63;15.75;;;9.50;99.90;;;;;;5072392;28;20400;-66
2021/05/13 02:47:06;;;;;;;19.55;15.98;;;9.60;99.90;;;;;;5071916;28;20461;-69
2021/05/13 02:49:38;;;;;;;19.30;17.13;;;9.60;99.90;;;;;;5072775;28;20495;-69
2021/05/13 02:52:06;;;;;;;18.75;16.15;;;9.50;99.90;;;;;;5072714;28;20438;-71
2021/05/13 02:54:35;;;;;;;22.17;16.58;;;9.60;99.90;;;;;;5073510;28;20475;-66
2021/05/13 02:57:02;;;;;;;18.83;16.10;;;9.60;99.90;;;;;;5072922;28;20771;-66
2021/05/13 02:59:40;;;;;;;16.90;13.85;;;9.70;99.90;;;;;;5072886;28;20775;-66
2021/05/13 03:02:10;;;;;;;16.80;14.27;;;9.70;99.90;;;;;;5053713;28;20422;-65
2021/05/13 03:04:39;;;;;;;15.80;14.00;;;9.70;99.90;;;;;;5074491;28;20530;-67
2021/05/13 03:07:07;;;;;;;17.23;14.20;;;9.70;99.90;;;;;;5074663;28;20427;-66
2021/05/13 03:12:28;;;;;;;19.15;15.75;;;9.70;99.90;;;;;;5074424;28;20408;-66
2021/05/13 03:14:57;;;;;;;18.92;15.68;;;9.60;99.90;;;;;;5073774;28;20416;-66
2021/05/13 03:17:26;;;;;;;16.55;14.05;;;9.60;99.90;;;;;;5033997;28;20414;-66
2021/05/13 03:19:58;;;;;;;17.63;14.02;;;9.70;99.90;;;;;;5052856;28;20475;-66
2021/05/13 03:22:26;;;;;;;19.77;14.68;;;9.70;99.90;;;;;;5052113;28;20416;-66
2021/05/13 03:24:58;;;;;;;18.27;14.93;;;9.70;99.90;;;;;;5052428;28;20421;-67
2021/05/13 03:27:40;;;;;;;19.33;14.67;;;9.60;99.90;;;;;;5052254;28;20429;-67
2021/05/13 03:30:11;;;;;;;15.20;13.60;;;9.80;99.90;;;;;;5053399;28;20413;-67
2021/05/13 03:32:40;;;;;;;17.55;14.30;;;9.80;99.90;;;;;;5054482;28;20404;-67
2021/05/13 03:35:09;;;;;;;15.67;13.97;;;9.70;99.90;;;;;;5072069;28;20485;-68
2021/05/13 03:37:37;;;;;;;15.90;14.13;;;9.70;99.90;;;;;;5072327;28;20487;-66
2021/05/13 03:40:08;;;;;;;18.05;14.32;;;9.70;99.90;;;;;;5072409;28;20745;-66
2021/05/13 03:42:36;;;;;;;15.27;13.60;;;9.70;99.90;;;;;;5071765;28;20412;-66
2021/05/13 03:45:05;;;;;;;16.63;14.88;;;9.70;99.90;;;;;;5072215;28;20400;-66
2021/05/13 03:47:33;;;;;;;16.60;14.50;;;9.60;99.90;;;;;;5053967;28;20415;-66
2021/05/13 03:50:02;;;;;;;15.23;13.63;;;9.60;99.90;;;;;;5072315;28;20408;-66
2021/05/13 03:52:31;;;;;;;16.48;13.80;;;9.70;99.90;;;;;;5074191;28;20471;-67
2021/05/13 03:54:59;;;;;;;16.92;13.57;;;9.70;99.90;;;;;;5076493;28;20404;-66
2021/05/13 03:57:27;;;;;;;15.25;13.05;;;9.70;99.90;;;;;;5076152;28;20407;-66
2021/05/13 03:59:58;;;;;;;15.10;12.73;;;9.60;99.90;;;;;;5076167;28;20406;-67
2021/05/13 04:02:31;;;;;;;15.63;13.82;;;9.70;99.90;;;;;;5074531;28;20430;-66
2021/05/13 04:04:59;;;;;;;14.73;13.13;;;9.70;99.90;;;;;;5076005;28;20494;-66
2021/05/13 04:07:29;;;;;;;14.85;12.75;;;9.70;99.90;;;;;;5058042;28;20424;-66
2021/05/13 04:09:58;;;;;;;16.98;12.60;;;9.70;99.90;;;;;;5075675;28;20419;-67
2021/05/13 04:12:26;;;;;;;13.57;12.07;;;9.80;99.90;;;;;;5058181;28;20798;-66
2021/05/13 04:14:55;;;;;;;13.98;11.20;;;9.90;99.90;;;;;;5075624;28;20794;-67
2021/05/13 04:17:23;;;;;;;13.30;11.90;;;9.90;99.90;;;;;;5074878;28;20463;-66
2021/05/13 04:19:51;;;;;;;13.77;11.43;;;9.90;99.90;;;;;;5058056;28;20400;-66
2021/05/13 04:22:19;;;;;;;11.95;10.70;;;9.90;99.90;;;;;;5075522;28;20958;-66
2021/05/13 04:24:48;;;;;;;12.10;10.73;;;9.90;99.90;;;;;;5075934;28;20907;-66
2021/05/13 04:27:16;;;;;;;12.93;11.52;;;10.00;99.90;;;;;;5075489;28;20809;-66
2021/05/13 04:29:44;;;;;;;12.70;10.20;;;10.00;99.90;;;;;;5075834;28;20404;-67
2021/05/13 04:32:12;;;;;;;12.20;10.70;;;9.90;99.90;;;;;;5074387;28;20404;-66
2021/05/13 04:34:40;;;;;;;12.38;10.43;;;9.90;99.90;;;;;;5057854;28;20456;-66
2021/05/13 04:37:08;;;;;;;13.00;10.90;;;9.90;99.90;;;;;;5076128;28;20403;-69
2021/05/13 04:42:30;;;;;;;13.07;10.80;;;9.90;99.90;;;;;;5075347;28;20408;-68
2021/05/13 04:44:59;;;;;;;15.75;11.00;;;9.90;99.90;;;;;;5040795;28;20408;-66
2021/05/13 04:47:34;;;;;;;13.88;10.65;;;10.00;99.90;;;;;;5034335;28;20412;-66
2021/05/13 04:50:02;;;;;;;11.55;10.32;;;10.00;99.90;;;;;;5017300;28;20435;-66
2021/05/13 04:52:30;;;;;;;13.50;10.67;;;10.10;99.90;;;;;;5034674;28;20415;-67
2021/05/13 04:54:59;;;;;;;12.65;11.38;;;10.10;99.90;;;;;;5017163;28;20408;-69
2021/05/13 04:57:26;;;;;;;12.45;10.52;;;10.10;99.90;;;;;;5034226;28;20415;-66
2021/05/13 04:59:56;;;;;;;11.75;9.80;;;10.20;99.90;;;;;;5034535;28;20418;-67
2021/05/13 05:02:24;;;;;;;12.30;10.27;;;10.20;99.90;;;;;;5035638;28;20417;-67
2021/05/13 05:04:52;;;;;;;12.43;10.30;;;10.30;99.90;;;;;;5053926;28;20405;-67
2021/05/13 05:07:21;;;;;;;13.50;10.50;;;10.30;99.90;;;;;;5035083;28;20490;-67
2021/05/13 05:09:49;;;;;;;10.80;9.70;;;10.30;99.90;;;;;;5074606;28;20408;-67
2021/05/13 05:12:17;;;;;;;11.35;10.15;;;10.30;99.90;;;;;;5074709;28;20756;-67
2021/05/13 05:14:48;;;;;;;11.25;10.15;;;10.30;99.90;;;;;;5074364;28;20462;-69
2021/05/13 05:17:16;;;;;;;10.40;9.40;;;10.40;99.90;;;;;;5073947;28;20808;-66
2021/05/13 05:19:45;;;;;;;10.20;9.10;;;10.40;99.90;;;;;;5056184;28;20593;-69
2021/05/13 05:22:13;;;;;;;12.73;10.45;;;10.40;99.90;;;;;;5074370;28;20408;-66
2021/05/13 05:24:41;;;;;;;11.38;9.50;;;10.40;99.90;;;;;;5074211;28;20473;-66
2021/05/13 05:27:09;;;;;;;11.85;10.45;;;10.40;99.90;;;;;;5074505;28;20404;-68
2021/05/13 05:29:38;;;;;;;13.93;10.85;;;10.50;99.90;;;;;;5056538;28;20414;-66
2021/05/13 05:32:06;;;;;;;13.25;10.63;;;10.50;99.90;;;;;;5073538;28;20522;-66
2021/05/13 05:34:38;;;;;;;11.85;10.57;;;10.50;99.90;;;;;;5056233;28;20400;-66
2021/05/13 05:37:06;;;;;;;13.45;10.90;;;10.50;99.90;;;;;;5073823;28;20464;-69
2021/05/13 05:39:33;;;;;;;13.20;10.90;;;10.50;99.90;;;;;;5056093;28;20404;-69
2021/05/13 05:42:04;;;;;;;11.88;10.60;;;10.50;99.90;;;;;;5073598;28;20805;-66
2021/05/13 05:44:32;;;;;;;12.57;10.80;;;10.50;99.90;;;;;;5073487;28;20419;-67
2021/05/13 05:47:00;;;;;;;12.48;10.48;;;10.50;99.90;;;;;;5072719;28;20447;-66
2021/05/13 05:49:29;;;;;;;12.98;11.35;;;10.50;99.90;;;;;;5073553;28;20515;-66
2021/05/13 05:52:22;;;;;;;13.30;11.43;;;10.50;99.90;;;;;;5073550;28;20502;-66
2021/05/13 05:54:51;;;;;;;13.48;11.00;;;10.60;99.90;;;;;;5055724;28;20930;-66
2021/05/13 05:57:19;;;;;;;12.63;10.88;;;10.70;99.90;;;;;;5074205;28;20404;-66
2021/05/13 05:59:47;;;;;;;11.85;10.65;;;10.80;99.90;;;;;;5073542;28;20392;-66
2021/05/13 06:02:15;;;;;;;11.98;10.63;;;10.80;99.90;;;;;;5073588;28;20395;-68
2021/05/13 06:04:43;;;;;;;10.98;9.82;;;10.80;99.90;;;;;;5056246;28;20419;-67
2021/05/13 06:07:10;;;;;;;12.70;11.00;;;10.80;99.90;;;;;;5074893;28;20426;-66
2021/05/13 06:12:33;;;;;;;12.73;10.68;;;10.90;99.90;;;;;;5073202;28;20416;-67
2021/05/13 06:15:03;;;;;;;11.85;9.90;;;11.00;99.90;;;;;;5054961;28;20415;-66
2021/05/13 06:17:31;;;;;;;13.30;11.13;;;11.00;99.90;;;;;;5038195;28;20449;-66
2021/05/13 06:20:01;;;;;;;12.68;11.27;;;10.90;99.90;;;;;;5073956;28;20392;-67
2021/05/13 06:22:30;;;;;;;12.13;10.52;;;11.00;99.90;;;;;;5074019;28;20408;-66
2021/05/13 06:24:59;;;;;;;12.77;10.85;;;11.00;99.90;;;;;;5074027;28;20472;-67
2021/05/13 06:27:27;;;;;;;12.63;10.85;;;11.10;99.90;;;;;;5074182;28;20403;-66
2021/05/13 06:29:55;;;;;;;12.40;10.82;;;11.20;99.90;;;;;;5075274;28;20404;-68
2021/05/13 06:32:23;;;;;;;12.57;9.95;;;11.10;99.90;;;;;;5065837;28;20794;-68
2021/05/13 06:34:51;;;;;;;12.20;10.57;;;11.20;99.90;;;;;;5085415;28;20407;-67
2021/05/13 06:37:19;;;;;;;11.05;9.75;;;10.90;99.90;;;;;;5082702;28;20760;-66
2021/05/13 06:39:48;;;;;;;12.20;10.13;;;11.10;99.90;;;;;;5074470;28;20400;-66
2021/05/13 06:42:17;;;;;;;10.95;9.85;;;11.20;99.90;;;;;;5056357;28;20414;-67
2021/05/13 06:44:44;;;;;;;12.90;10.70;;;11.30;99.90;;;;;;5073803;28;20822;-66
2021/05/13 06:47:13;;;;;;;10.10;8.93;;;11.10;99.90;;;;;;5072004;28;20474;-66
2021/05/13 06:52:33;;;;;;;14.23;10.57;;;11.10;99.90;;;;;;5073512;28;20403;-67
2021/05/13 06:55:02;;;;;;;10.48;9.48;;;11.40;99.90;;;;;;5072470;28;20468;-68
2021/05/13 06:57:31;;;;;;;10.10;9.10;;;11.30;99.90;;;;;;5073189;28;20439;-67
2021/05/13 06:59:59;;;;;;;9.25;8.02;;;11.60;99.90;;;;;;5055023;28;20986;-66
2021/05/13 07:02:27;;;;;;;9.95;8.95;;;11.70;99.90;;;;;;5051990;28;20424;-66
2021/05/13 07:04:55;;;;;;;10.43;9.15;;;11.90;99.90;;;;;;5052319;28;20428;-69
2021/05/13 07:07:28;;;;;;;9.30;8.30;;;12.10;99.90;;;;;;5052581;28;20967;-67
2021/05/13 07:10:20;;;;;;;9.75;8.70;;;12.00;99.90;;;;;;5052429;28;20455;-69
2021/05/13 07:12:49;;;;;;;10.20;9.10;;;12.10;99.90;;;;;;5052733;28;20421;-66
2021/05/13 07:15:41;;;;;;;12.00;9.90;;;12.00;99.90;;;;;;5038963;28;20412;-66
2021/05/13 07:18:13;;;;;;;10.80;9.48;;;12.10;99.90;;;;;;5054927;28;20411;-66
2021/05/13 07:20:42;;;;;;;10.90;9.27;;;12.20;99.90;;;;;;5054307;28;20408;-66
2021/05/13 07:23:11;;;;;;;10.90;9.80;;;12.30;99.90;;;;;;5072612;28;20406;-68
2021/05/13 07:25:39;;;;;;;10.57;9.48;;;12.30;99.90;;;;;;5072726;28;20407;-66
2021/05/13 07:28:09;;;;;;;9.70;8.70;;;12.60;99.90;;;;;;5075298;28;20454;-66
2021/05/13 07:30:39;;;;;;;9.35;8.20;;;12.70;99.90;;;;;;5056973;28;20606;-69
2021/05/13 07:33:07;;;;;;;11.43;8.40;;;12.80;99.90;;;;;;5058451;28;20430;-70
2021/05/13 07:35:35;;;;;;;8.50;7.60;;;13.00;99.90;;;;;;5058316;28;20494;-67
2021/05/13 07:38:03;;;;;;;9.27;8.23;;;13.30;99.90;;;;;;5076554;28;20407;-67
2021/05/13 07:40:33;;;;;;;8.48;7.60;;;13.80;99.90;;;;;;5058687;28;21005;-69
2021/05/13 07:43:26;;;;;;;8.97;7.77;;;14.20;99.90;;;;;;5062476;28;20411;-67
2021/05/13 07:45:57;;;;;;;8.35;7.50;;;14.20;99.90;;;;;;5075030;28;20414;-67
2021/05/13 07:48:28;;;;;;;42.05;33.42;;;14.80;99.90;;;;;;5058518;28;20419;-69
2021/05/13 07:50:56;;;;;;;26.63;22.52;;;14.60;99.90;;;;;;5058370;28;20418;-68
2021/05/13 07:53:26;;;;;;;12.17;10.83;;;14.00;99.90;;;;;;5058720;28;20400;-68
2021/05/13 07:56:19;;;;;;;61.22;53.47;;;14.00;99.90;;;;;;5058708;28;20442;-68
2021/05/13 07:58:48;;;;;;;17.13;15.00;;;13.80;99.90;;;;;;5076926;28;20488;-68
2021/05/13 08:01:16;;;;;;;9.50;8.50;;;13.80;99.90;;;;;;5057564;28;20566;-70
2021/05/13 08:03:44;;;;;;;14.25;11.50;;;13.50;99.90;;;;;;5041629;28;20523;-66
2021/05/13 08:06:13;;;;;;;13.75;12.00;;;13.20;99.90;;;;;;5075818;28;20871;-67
2021/05/13 08:08:41;;;;;;;10.32;8.82;;;13.10;99.90;;;;;;5075597;28;20478;-69
2021/05/13 08:11:09;;;;;;;31.08;26.10;;;12.80;99.90;;;;;;5057680;28;20473;-67
2021/05/13 08:13:37;;;;;;;45.17;36.08;;;12.90;99.90;;;;;;5075164;28;20416;-67
2021/05/13 08:16:06;;;;;;;10.15;9.15;;;12.90;99.90;;;;;;5074334;28;20461;-68
2021/05/13 08:18:34;;;;;;;9.60;7.25;;;13.30;99.90;;;;;;5074925;28;20412;-67
2021/05/13 08:21:02;;;;;;;8.17;7.23;;;13.60;99.90;;;;;;5075428;28;20419;-67
2021/05/13 08:23:32;;;;;;;8.52;7.35;;;13.80;99.90;;;;;;5075523;28;20497;-67
2021/05/13 08:26:00;;;;;;;8.43;6.55;;;13.90;99.90;;;;;;5057357;28;20408;-69
2021/05/13 08:28:28;;;;;;;7.53;6.80;;;14.00;99.90;;;;;;5075399;28;20429;-67
2021/05/13 08:30:57;;;;;;;7.75;6.22;;;13.80;99.90;;;;;;5066457;28;20766;-68
2021/05/13 08:33:25;;;;;;;11.80;7.80;;;14.10;99.90;;;;;;5055508;28;20893;-67
2021/05/13 08:35:53;;;;;;;7.47;6.75;;;14.00;99.90;;;;;;5038796;28;20405;-67
2021/05/13 08:38:21;;;;;;;10.05;7.95;;;14.00;99.90;;;;;;5055228;28;20417;-69
2021/05/13 08:40:49;;;;;;;9.82;8.50;;;14.10;99.90;;;;;;5055783;28;20416;-67
2021/05/13 08:43:24;;;;;;;8.38;6.55;;;14.40;99.90;;;;;;5055380;28;20497;-67
2021/05/13 08:45:52;;;;;;;9.07;7.22;;;14.70;99.90;;;;;;5054379;28;20424;-69
2021/05/13 08:48:21;;;;;;;9.68;6.97;;;14.90;99.90;;;;;;5055171;28;20405;-67
2021/05/13 08:50:50;;;;;;;7.38;6.65;;;14.40;99.90;;;;;;5037316;28;20421;-68
2021/05/13 08:53:21;;;;;;;8.38;7.43;;;15.00;99.90;;;;;;5020866;28;20414;-67
2021/05/13 08:55:49;;;;;;;7.90;7.10;;;14.60;99.90;;;;;;5055124;28;20514;-67
2021/05/13 08:58:17;;;;;;;7.82;7.03;;;14.90;99.90;;;;;;5056223;28;20402;-67
2021/05/13 09:00:53;;;;;;;7.80;7.00;;;14.90;99.90;;;;;;5053883;28;20409;-70
2021/05/13 09:03:35;;;;;;;7.53;6.60;;;15.00;99.90;;;;;;5055082;28;20525;-67
2021/05/13 09:06:04;;;;;;;6.50;5.90;;;15.80;99.90;;;;;;5024911;28;20420;-67
2021/05/13 09:08:33;;;;;;;6.60;5.90;;;16.70;99.90;;;;;;5075642;28;20433;-68
2021/05/13 09:11:11;;;;;;;11.13;9.80;;;17.50;99.90;;;;;;5075591;28;20443;-68
2021/05/13 09:13:40;;;;;;;16.88;15.07;;;17.70;99.90;;;;;;5040687;28;20880;-67
2021/05/13 09:16:26;;;;;;;8.63;7.83;;;17.00;99.90;;;;;;5073763;28;20489;-68
2021/05/13 09:18:55;;;;;;;6.93;6.22;;;16.80;99.90;;;;;;5074360;28;20495;-68
2021/05/13 09:21:24;;;;;;;6.88;5.35;;;17.10;99.90;;;;;;5075095;28;20461;-67
2021/05/13 09:23:53;;;;;;;7.22;6.00;;;16.90;99.90;;;;;;5074625;28;20404;-67
2021/05/13 09:26:21;;;;;;;7.20;6.20;;;16.20;99.90;;;;;;5074727;28;20531;-67
2021/05/13 09:29:07;;;;;;;7.50;6.80;;;15.90;99.90;;;;;;5074525;28;20453;-67
2021/05/13 09:31:37;;;;;;;6.45;5.80;;;15.90;99.90;;;;;;5073228;28;20408;-66
2021/05/13 09:34:08;;;;;;;6.88;5.68;;;16.10;99.90;;;;;;5074528;28;20435;-67
2021/05/13 09:36:37;;;;;;;7.05;5.93;;;15.90;99.90;;;;;;5074376;28;20412;-71
2021/05/13 09:39:23;;;;;;;5.78;5.28;;;15.90;99.90;;;;;;5073974;28;20457;-68
2021/05/13 09:41:59;;;;;;;6.85;6.10;;;17.00;99.90;;;;;;5056569;28;20415;-68
2021/05/13 09:44:35;;;;;;;7.43;5.68;;;17.60;99.90;;;;;;5055803;28;20506;-68
2021/05/13 09:47:14;;;;;;;6.18;5.57;;;16.90;99.90;;;;;;5073345;28;20411;-67
2021/05/13 09:50:01;;;;;;;5.95;5.35;;;16.40;99.90;;;;;;5073742;28;20519;-67
2021/05/13 09:52:57;;;;;;;6.20;5.60;;;16.20;99.90;;;;;;5074016;28;20436;-67
2021/05/13 09:55:27;;;;;;;7.15;6.45;;;15.80;99.90;;;;;;5055676;28;20797;-67
2021/05/13 09:58:00;;;;;;;6.40;5.75;;;15.60;99.90;;;;;;5055762;28;20447;-67
2021/05/13 10:00:44;;;;;;;6.50;5.90;;;15.60;99.90;;;;;;5073207;28;20457;-67
2021/05/13 10:03:14;;;;;;;6.88;5.57;;;15.40;99.90;;;;;;5074141;28;20449;-68
2021/05/13 10:05:47;;;;;;;7.43;5.38;;;15.30;99.90;;;;;;5073327;28;20439;-68
2021/05/13 10:08:16;;;;;;;7.03;4.80;;;15.60;99.90;;;;;;5073317;28;20771;-67
2021/05/13 10:10:48;;;;;;;5.25;4.45;;;15.40;99.90;;;;;;5055423;28;20447;-68
2021/05/13 10:13:19;;;;;;;4.82;4.32;;;15.80;99.90;;;;;;5055331;28;20431;-67
2021/05/13 10:15:48;;;;;;;6.03;5.50;;;15.80;99.90;;;;;;5072157;28;20392;-68
2021/05/13 10:18:23;;;;;;;5.38;4.88;;;15.50;99.90;;;;;;5055597;28;20439;-67
2021/05/13 10:20:56;;;;;;;7.10;4.90;;;15.20;99.90;;;;;;5073250;28;20400;-67
2021/05/13 10:23:29;;;;;;;6.05;5.00;;;15.40;99.90;;;;;;5073338;28;20983;-68
2021/05/13 10:25:59;;;;;;;5.65;4.60;;;15.50;99.90;;;;;;5055413;28;20432;-68
2021/05/13 10:28:29;;;;;;;6.07;5.20;;;15.60;99.90;;;;;;5072926;28;20776;-67
2021/05/13 10:31:05;;;;;;;5.47;4.97;;;15.40;99.90;;;;;;5072074;28;20438;-69
2021/05/13 10:33:48;;;;;;;8.45;4.75;;;15.30;99.90;;;;;;5054936;28;20489;-68
2021/05/13 10:36:22;;;;;;;6.10;5.50;;;15.10;99.90;;;;;;5072672;28;20407;-67
2021/05/13 10:38:54;;;;;;;5.97;5.13;;;15.10;99.90;;;;;;5072958;28;20419;-68
2021/05/13 10:41:41;;;;;;;5.95;5.35;;;15.30;99.90;;;;;;5073008;28;20536;-68
2021/05/13 10:44:37;;;;;;;7.72;4.88;;;14.80;99.90;;;;;;5072512;28;20799;-68
2021/05/13 10:47:09;;;;;;;5.30;4.80;;;15.10;99.90;;;;;;5072134;28;20477;-68
2021/05/13 10:49:49;;;;;;;6.28;5.20;;;15.40;99.90;;;;;;5072849;28;20491;-68
2021/05/13 10:55:37;;;;;;;6.20;5.20;;;15.40;99.90;;;;;;5073105;28;20757;-70
2021/05/13 10:58:05;;;;;;;8.10;5.40;;;15.70;99.90;;;;;;5054660;28;20458;-68
2021/05/13 11:00:34;;;;;;;5.77;4.83;;;15.90;99.90;;;;;;5053902;28;20405;-68
2021/05/13 11:03:19;;;;;;;5.78;5.20;;;15.90;99.90;;;;;;5072061;28;20412;-68
2021/05/13 11:05:47;;;;;;;5.40;4.90;;;15.70;99.90;;;;;;5072999;28;20446;-67
2021/05/13 11:08:29;;;;;;;5.35;4.85;;;15.80;99.90;;;;;;5055457;28;20490;-68
2021/05/13 11:11:01;;;;;;;6.22;5.18;;;16.00;99.90;;;;;;5072699;28;20404;-68
2021/05/13 11:13:50;;;;;;;6.40;5.07;;;16.20;99.90;;;;;;5055654;28;20486;-67
2021/05/13 11:16:47;;;;;;;7.40;5.90;;;16.10;99.90;;;;;;5072447;28;20533;-67
2021/05/13 11:19:21;;;;;;;5.93;4.80;;;15.80;99.90;;;;;;5073360;28;20503;-65
2021/05/13 11:21:57;;;;;;;7.65;5.70;;;15.40;99.90;;;;;;5073253;28;20408;-66
2021/05/13 11:24:32;;;;;;;8.07;5.43;;;14.90;99.90;;;;;;5038604;28;20396;-66
2021/05/13 11:27:02;;;;;;;6.10;5.40;;;15.10;99.90;;;;;;5072702;28;20420;-67
2021/05/13 11:29:43;;;;;;;5.25;4.72;;;15.60;99.90;;;;;;5055407;28;20415;-67
2021/05/13 11:32:13;;;;;;;5.30;4.80;;;15.80;99.90;;;;;;5077732;28;20446;-68
2021/05/13 11:34:43;;;;;;;71.20;62.45;;;15.90;99.90;;;;;;5062375;28;20461;-67
2021/05/13 11:37:34;;;;;;;5.60;5.10;;;16.00;99.90;;;;;;5079797;28;20396;-67
2021/05/13 11:40:22;;;;;;;10.32;6.13;;;15.80;99.90;;;;;;5079515;28;20909;-67
2021/05/13 11:42:52;;;;;;;8.35;5.00;;;15.80;99.90;;;;;;5080926;28;20462;-67
2021/05/13 11:45:24;;;;;;;5.53;5.03;;;15.50;99.90;;;;;;5079227;28;20430;-67
2021/05/13 11:47:52;;;;;;;9.85;8.43;;;15.20;99.90;;;;;;5079975;28;20404;-67
2021/05/13 11:50:27;;;;;;;6.35;5.30;;;15.30;99.90;;;;;;5079025;28;20524;-68
2021/05/13 11:53:09;;;;;;;6.35;4.93;;;15.30;99.90;;;;;;5063273;28;20490;-67
2021/05/13 11:55:40;;;;;;;5.75;5.13;;;15.40;99.90;;;;;;5079999;28;20498;-69
2021/05/13 11:58:10;;;;;;;7.40;5.53;;;15.50;99.90;;;;;;5080987;28;20438;-67
2021/05/13 12:00:42;;;;;;;6.03;5.10;;;15.50;99.90;;;;;;5077095;28;20457;-67
2021/05/13 12:03:12;;;;;;;6.05;5.45;;;15.50;99.90;;;;;;5078688;28;20422;-67
2021/05/13 12:05:48;;;;;;;7.65;5.63;;;15.70;99.90;;;;;;5077604;28;20463;-67
2021/05/13 12:08:21;;;;;;;6.20;5.60;;;15.90;99.90;;;;;;5060544;28;20416;-67
2021/05/13 12:10:52;;;;;;;8.47;5.30;;;15.80;99.90;;;;;;5060599;28;20415;-67
2021/05/13 12:13:27;;;;;;;9.20;7.80;;;15.40;99.90;;;;;;5038465;28;20412;-69
2021/05/13 12:16:02;;;;;;;7.38;6.50;;;15.30;99.90;;;;;;5075840;28;20435;-67
2021/05/13 12:18:31;;;;;;;5.57;5.00;;;15.30;99.90;;;;;;5077151;28;20900;-67
2021/05/13 12:21:00;;;;;;;5.10;4.60;;;15.30;99.90;;;;;;5075938;28;20430;-67
2021/05/13 12:23:29;;;;;;;5.20;4.50;;;15.30;99.90;;;;;;5075858;28;20806;-67
2021/05/13 12:25:59;;;;;;;6.00;5.40;;;15.20;99.90;;;;;;5075697;28;20411;-69
2021/05/13 12:28:28;;;;;;;5.68;4.20;;;15.10;99.90;;;;;;5057639;28;20633;-68
2021/05/13 12:30:57;;;;;;;5.72;4.50;;;15.10;99.90;;;;;;5074208;28;20416;-67
2021/05/13 12:33:28;;;;;;;6.10;4.97;;;14.90;99.90;;;;;;5075297;28;20863;-68
2021/05/13 12:35:57;;;;;;;5.45;4.68;;;14.60;99.90;;;;;;5075133;28;20403;-67
2021/05/13 12:38:26;;;;;;;6.60;4.70;;;14.80;99.90;;;;;;5056981;28;20895;-69
2021/05/13 12:41:07;;;;;;;6.15;5.00;;;15.00;99.90;;;;;;5075686;28;20411;-68
2021/05/13 12:43:37;;;;;;;5.30;4.40;;;14.80;99.90;;;;;;5057665;28;20926;-67
2021/05/13 12:46:19;;;;;;;5.00;4.50;;;14.80;99.90;;;;;;5074395;28;20419;-67
2021/05/13 12:48:49;;;;;;;5.10;4.20;;;14.70;99.90;;;;;;5057743;28;20506;-67
2021/05/13 12:51:20;;;;;;;8.43;5.53;;;14.70;99.90;;;;;;5057349;28;20771;-67
2021/05/13 12:53:50;;;;;;;4.50;4.10;;;14.60;99.90;;;;;;5075133;28;20408;-67
2021/05/13 12:56:23;;;;;;;5.90;4.10;;;14.70;99.90;;;;;;5075080;28;20416;-68
2021/05/13 12:59:09;;;;;;;7.85;4.60;;;14.90;99.90;;;;;;5074856;28;20408;-67
2021/05/13 13:01:39;;;;;;;4.40;4.00;;;15.00;99.90;;;;;;5050676;28;20431;-69
2021/05/13 13:04:09;;;;;;;4.63;3.67;;;15.00;99.90;;;;;;5074731;28;20528;-67
2021/05/13 13:06:48;;;;;;;5.50;4.20;;;14.90;99.90;;;;;;5074244;28;20435;-67
2021/05/13 13:09:31;;;;;;;5.60;4.00;;;14.80;99.90;;;;;;5056809;28;20392;-67
2021/05/13 13:12:01;;;;;;;4.65;4.10;;;14.60;99.90;;;;;;5074804;28;20436;-67
2021/05/13 13:14:36;;;;;;;7.90;5.50;;;14.60;99.90;;;;;;5075581;28;20430;-66